Time;durP1;ratioP1;P1;durP2;ratioP2;P2;SDS_P1;SDS_P2;PMS_P1;PMS_P2;Temp;Humidity;BMP_temperature;BMP_pressure;BME280_temperature;BME280_humidity;BME280_pressure;Samples;Min_cycle;Max_cycle;Signal;HPM_P1;HPM_P2
2022/08/02 00:01:53;;;;;;;23.50;22.40;;;20.50;88.60;;;;;;4965579;28;20984;-67
2022/08/02 00:04:21;;;;;;;24.27;22.90;;;20.50;88.40;;;;;;4966689;28;20476;-67
2022/08/02 00:06:48;;;;;;;24.80;23.60;;;20.50;88.70;;;;;;4966626;28;20461;-67
2022/08/02 00:09:15;;;;;;;23.90;22.73;;;20.30;89.20;;;;;;4966417;28;20560;-67
2022/08/02 00:11:42;;;;;;;23.90;22.80;;;20.30;89.50;;;;;;4970098;28;20496;-67
2022/08/02 00:14:10;;;;;;;23.30;22.20;;;20.20;89.70;;;;;;4967345;28;20468;-67
2022/08/02 00:16:37;;;;;;;22.63;21.63;;;20.20;89.80;;;;;;4965526;28;20588;-67
2022/08/02 00:19:04;;;;;;;24.77;23.27;;;20.20;90.00;;;;;;4965730;28;20568;-67
2022/08/02 00:21:32;;;;;;;22.47;21.37;;;20.10;90.30;;;;;;4964215;28;20527;-67
2022/08/02 00:23:59;;;;;;;22.63;21.60;;;20.20;90.10;;;;;;4962157;28;20532;-67
2022/08/02 00:26:26;;;;;;;23.73;22.63;;;20.20;90.10;;;;;;4966856;28;20553;-67
2022/08/02 00:28:53;;;;;;;23.77;22.30;;;20.20;90.00;;;;;;4966803;28;20543;-66
2022/08/02 00:31:20;;;;;;;21.83;20.63;;;20.10;90.10;;;;;;4965890;28;20464;-67
2022/08/02 00:33:46;;;;;;;24.97;23.43;;;20.20;89.80;;;;;;4965590;28;20565;-67
2022/08/02 00:36:14;;;;;;;23.30;22.20;;;20.20;90.00;;;;;;4961747;28;20486;-67
2022/08/02 00:38:42;;;;;;;24.10;22.90;;;20.20;89.90;;;;;;4967964;28;20556;-67
2022/08/02 00:41:15;;;;;;;23.57;22.47;;;20.10;90.00;;;;;;4967484;28;21023;-67
2022/08/02 00:43:42;;;;;;;23.07;21.83;;;20.10;90.20;;;;;;4968976;28;20547;-66
2022/08/02 00:46:09;;;;;;;21.93;20.93;;;20.10;90.40;;;;;;4968045;28;20462;-67
2022/08/02 00:48:36;;;;;;;23.73;22.63;;;20.10;90.60;;;;;;4965590;28;20485;-66
2022/08/02 00:51:04;;;;;;;22.90;21.90;;;20.10;90.70;;;;;;4961692;28;20577;-67
2022/08/02 00:53:31;;;;;;;23.37;22.17;;;20.10;90.90;;;;;;4968483;28;20552;-67
2022/08/02 00:56:00;;;;;;;23.10;22.00;;;20.00;90.90;;;;;;4964898;28;20551;-67
2022/08/02 00:58:27;;;;;;;23.40;22.27;;;20.00;91.00;;;;;;4969696;28;20463;-67
2022/08/02 01:00:56;;;;;;;23.80;22.70;;;20.00;91.10;;;;;;4970538;28;20580;-67
2022/08/02 01:03:23;;;;;;;23.27;22.20;;;20.00;91.10;;;;;;4968721;28;20469;-67
2022/08/02 01:05:50;;;;;;;22.50;21.30;;;20.00;90.80;;;;;;4966592;28;20552;-67
2022/08/02 01:08:17;;;;;;;25.07;23.80;;;20.00;90.80;;;;;;4967610;28;20544;-67
2022/08/02 01:10:45;;;;;;;23.20;22.10;;;20.00;90.70;;;;;;4964206;28;20510;-69
2022/08/02 01:13:13;;;;;;;22.37;21.27;;;20.00;90.80;;;;;;4967719;28;20474;-69
2022/08/02 01:15:47;;;;;;;24.40;23.20;;;20.00;90.70;;;;;;4962688;28;20566;-67
2022/08/02 01:18:22;;;;;;;22.97;21.77;;;20.00;90.60;;;;;;4963810;28;20970;-67
2022/08/02 01:21:05;;;;;;;22.60;21.60;;;20.00;90.80;;;;;;4964485;28;20478;-70
2022/08/02 01:23:51;;;;;;;23.10;22.00;;;20.00;90.80;;;;;;4957147;28;20498;-69
2022/08/02 01:26:39;;;;;;;23.93;22.83;;;20.00;90.60;;;;;;4966189;28;20556;-69
2022/08/02 01:29:12;;;;;;;25.43;24.23;;;19.90;90.60;;;;;;4966110;28;20509;-69
2022/08/02 01:31:47;;;;;;;25.17;23.97;;;19.90;90.50;;;;;;4965821;28;20564;-69
2022/08/02 01:34:19;;;;;;;25.23;24.03;;;19.90;90.50;;;;;;4968320;28;20567;-69
2022/08/02 01:36:51;;;;;;;24.87;23.73;;;19.90;90.30;;;;;;4968820;28;20572;-69
2022/08/02 01:39:24;;;;;;;23.57;22.30;;;19.90;90.30;;;;;;4967322;28;22795;-69
2022/08/02 01:41:53;;;;;;;24.30;23.20;;;20.00;90.00;;;;;;4972558;28;20470;-69
2022/08/02 01:44:24;;;;;;;24.23;23.10;;;20.00;89.90;;;;;;4969229;28;20469;-68
2022/08/02 01:46:53;;;;;;;24.20;23.00;;;19.90;89.80;;;;;;4969831;28;21042;-69
2022/08/02 01:49:22;;;;;;;24.10;23.00;;;19.90;89.80;;;;;;4970632;28;20575;-69
2022/08/02 01:54:38;;;;;;;23.07;22.07;;;19.90;89.50;;;;;;4969314;28;20507;-68
2022/08/02 01:57:10;;;;;;;24.67;23.57;;;19.80;89.60;;;;;;4969422;28;20457;-69
2022/08/02 01:59:40;;;;;;;24.63;23.53;;;19.90;89.40;;;;;;4966499;28;20584;-69
2022/08/02 02:02:09;;;;;;;23.57;22.57;;;19.90;89.10;;;;;;4962116;28;20818;-69
2022/08/02 02:04:37;;;;;;;22.93;21.83;;;19.90;89.00;;;;;;4969984;28;20842;-67
2022/08/02 02:07:06;;;;;;;24.20;23.10;;;19.90;89.00;;;;;;4967948;28;20905;-67
2022/08/02 02:09:37;;;;;;;24.27;23.27;;;19.90;89.00;;;;;;4966599;28;20661;-67
2022/08/02 02:12:06;;;;;;;24.70;23.50;;;19.90;88.90;;;;;;4967045;28;20541;-67
2022/08/02 02:14:34;;;;;;;23.90;22.70;;;19.90;88.80;;;;;;4968375;28;20548;-67
2022/08/02 02:17:03;;;;;;;24.10;23.10;;;19.90;88.70;;;;;;4969664;28;20466;-67
2022/08/02 02:19:31;;;;;;;31.90;30.40;;;19.90;88.60;;;;;;4968964;28;20992;-67
2022/08/02 02:21:58;;;;;;;26.20;24.80;;;19.90;88.60;;;;;;4967045;28;20550;-67
2022/08/02 02:24:25;;;;;;;49.33;47.13;;;19.90;88.40;;;;;;4966533;28;20498;-67
2022/08/02 02:26:52;;;;;;;25.17;24.07;;;19.80;88.50;;;;;;4970953;28;20485;-67
2022/08/02 02:29:21;;;;;;;24.70;23.60;;;19.90;88.40;;;;;;4968597;28;20567;-66
2022/08/02 02:31:52;;;;;;;26.73;25.23;;;19.80;88.60;;;;;;4969020;28;20496;-67
2022/08/02 02:34:27;;;;;;;25.00;23.70;;;19.90;88.50;;;;;;4967907;28;20550;-67
2022/08/02 02:36:58;;;;;;;26.90;25.27;;;19.90;88.30;;;;;;4967476;28;20473;-67
2022/08/02 02:39:27;;;;;;;24.83;23.53;;;19.90;88.30;;;;;;4968489;28;20876;-67
2022/08/02 02:41:56;;;;;;;26.13;24.80;;;19.90;88.30;;;;;;4966030;28;21050;-67
2022/08/02 02:44:24;;;;;;;24.40;23.20;;;19.90;88.00;;;;;;4967053;28;20552;-69
2022/08/02 02:46:53;;;;;;;24.60;23.60;;;19.90;88.00;;;;;;4969744;28;20565;-68
2022/08/02 02:49:24;;;;;;;24.97;23.87;;;19.90;88.00;;;;;;4967941;28;20818;-69
2022/08/02 02:51:51;;;;;;;25.00;23.90;;;19.80;88.00;;;;;;4969268;28;20465;-69
2022/08/02 02:54:20;;;;;;;42.60;40.33;;;19.80;88.00;;;;;;4967198;28;20464;-69
2022/08/02 02:56:48;;;;;;;25.13;24.03;;;19.80;87.90;;;;;;4966508;28;20464;-69
2022/08/02 02:59:16;;;;;;;27.30;25.90;;;19.80;87.80;;;;;;4967973;28;20922;-69
2022/08/02 03:01:43;;;;;;;23.80;22.80;;;19.80;87.70;;;;;;4969480;28;20481;-69
2022/08/02 03:04:12;;;;;;;22.60;21.60;;;19.80;87.60;;;;;;4967582;28;21937;-69
2022/08/02 03:06:40;;;;;;;26.87;25.67;;;19.80;87.20;;;;;;4964487;28;20470;-69
2022/08/02 03:09:09;;;;;;;28.03;26.83;;;19.80;87.10;;;;;;4966512;28;20564;-69
2022/08/02 03:11:37;;;;;;;42.07;40.07;;;19.80;87.20;;;;;;4966117;28;22290;-69
2022/08/02 03:14:05;;;;;;;29.10;27.90;;;19.80;87.30;;;;;;4969160;28;21083;-69
2022/08/02 03:16:32;;;;;;;27.47;26.23;;;19.80;87.30;;;;;;4965747;28;20552;-69
2022/08/02 03:19:02;;;;;;;25.40;24.30;;;19.70;87.50;;;;;;4966157;28;20543;-67
2022/08/02 03:21:29;;;;;;;25.63;24.43;;;19.70;87.80;;;;;;4961475;28;20497;-67
2022/08/02 03:23:58;;;;;;;25.50;24.17;;;19.60;88.20;;;;;;4966988;28;20553;-67
2022/08/02 03:26:25;;;;;;;49.40;47.07;;;19.60;88.30;;;;;;4966777;28;20552;-67
2022/08/02 03:28:52;;;;;;;25.13;24.03;;;19.60;88.50;;;;;;4961124;28;20555;-66
2022/08/02 03:31:18;;;;;;;40.87;38.83;;;19.50;88.60;;;;;;4966347;28;20583;-69
2022/08/02 03:33:46;;;;;;;25.87;24.57;;;19.50;88.60;;;;;;4967242;28;20573;-69
2022/08/02 03:36:16;;;;;;;24.10;23.00;;;19.50;88.70;;;;;;4967484;28;20555;-69
2022/08/02 03:38:45;;;;;;;24.73;23.63;;;19.40;88.80;;;;;;4966752;28;20551;-69
2022/08/02 03:41:17;;;;;;;24.33;23.30;;;19.40;89.00;;;;;;4968684;28;20639;-68
2022/08/02 03:43:45;;;;;;;29.87;28.47;;;19.40;89.10;;;;;;4967630;28;20566;-70
2022/08/02 03:46:14;;;;;;;25.50;24.30;;;19.30;89.30;;;;;;4968001;28;20469;-68
2022/08/02 03:48:42;;;;;;;51.03;48.73;;;19.30;89.20;;;;;;4965243;28;20589;-69
2022/08/02 03:51:10;;;;;;;27.00;25.70;;;19.30;89.30;;;;;;4964121;28;21046;-69
2022/08/02 03:53:38;;;;;;;54.03;51.43;;;19.30;89.20;;;;;;4966787;28;20568;-69
2022/08/02 03:56:06;;;;;;;24.60;23.50;;;19.30;89.10;;;;;;4964058;28;20461;-69
2022/08/02 03:58:34;;;;;;;26.93;25.80;;;19.30;89.00;;;;;;4967334;28;20556;-69
2022/08/02 04:01:01;;;;;;;42.80;40.93;;;19.30;89.10;;;;;;4965219;28;20916;-68
2022/08/02 04:03:29;;;;;;;50.03;47.93;;;19.30;89.00;;;;;;4964445;28;20551;-69
2022/08/02 04:05:56;;;;;;;27.80;26.57;;;19.30;89.00;;;;;;4966255;28;20475;-69
2022/08/02 04:08:23;;;;;;;26.40;25.20;;;19.30;88.90;;;;;;4966306;28;21062;-69
2022/08/02 04:13:37;;;;;;;42.37;40.53;;;19.40;88.60;;;;;;4960337;28;20789;-69
2022/08/02 04:16:08;;;;;;;30.63;29.40;;;19.40;88.40;;;;;;4963498;28;20971;-69
2022/08/02 04:18:40;;;;;;;54.27;51.87;;;19.40;88.40;;;;;;4967129;28;20920;-69
2022/08/02 04:21:09;;;;;;;40.03;38.30;;;19.40;88.30;;;;;;4961076;28;20503;-69
2022/08/02 04:23:38;;;;;;;61.40;58.67;;;19.40;88.30;;;;;;4966241;28;21313;-66
2022/08/02 04:26:06;;;;;;;29.00;27.63;;;19.50;87.90;;;;;;4964167;28;20550;-67
2022/08/02 04:28:36;;;;;;;30.03;28.53;;;19.60;87.70;;;;;;4963569;28;20847;-67
2022/08/02 04:31:03;;;;;;;33.07;31.67;;;19.60;87.40;;;;;;4960629;28;20577;-66
2022/08/02 04:33:31;;;;;;;28.93;27.73;;;19.70;87.00;;;;;;4964258;28;20628;-66
2022/08/02 04:35:58;;;;;;;32.70;31.30;;;19.80;86.70;;;;;;4963370;28;20470;-67
2022/08/02 04:38:25;;;;;;;40.60;38.80;;;19.90;86.40;;;;;;4967709;28;20470;-67
2022/08/02 04:40:54;;;;;;;39.17;37.37;;;19.90;85.90;;;;;;4966328;28;20836;-67
2022/08/02 04:43:21;;;;;;;31.10;29.80;;;20.00;85.80;;;;;;4966007;28;20912;-66
2022/08/02 04:45:52;;;;;;;31.57;30.27;;;20.00;85.80;;;;;;4966346;28;20825;-67
2022/08/02 04:48:20;;;;;;;27.83;26.73;;;20.00;85.80;;;;;;4967771;28;20469;-67
2022/08/02 04:50:46;;;;;;;37.20;35.60;;;20.10;85.50;;;;;;4963107;28;20474;-67
2022/08/02 04:53:13;;;;;;;32.27;30.83;;;20.10;85.40;;;;;;4961981;28;20557;-68
2022/08/02 04:55:40;;;;;;;33.97;32.53;;;20.20;85.10;;;;;;4961378;28;20458;-67
2022/08/02 04:58:07;;;;;;;37.00;35.30;;;20.30;84.80;;;;;;4969745;28;20558;-67
2022/08/02 05:00:34;;;;;;;30.03;28.73;;;20.40;84.50;;;;;;4966544;28;20550;-67
2022/08/02 05:03:03;;;;;;;55.27;52.63;;;20.50;84.20;;;;;;4968745;28;21064;-68
2022/08/02 05:05:30;;;;;;;45.30;43.33;;;20.60;83.60;;;;;;4968050;28;20529;-70
2022/08/02 05:07:57;;;;;;;31.97;30.53;;;20.70;83.50;;;;;;4969766;28;21035;-67
2022/08/02 05:10:24;;;;;;;32.70;31.30;;;20.90;82.80;;;;;;4971527;28;20562;-68
2022/08/02 05:12:51;;;;;;;29.67;28.40;;;20.90;82.60;;;;;;4968728;28;20540;-67
2022/08/02 05:15:18;;;;;;;35.57;33.93;;;21.00;82.20;;;;;;4969426;28;20550;-69
2022/08/02 05:17:47;;;;;;;31.27;29.97;;;21.00;82.10;;;;;;4971848;28;20545;-69
2022/08/02 05:20:16;;;;;;;30.13;28.73;;;21.10;81.70;;;;;;4968086;28;20946;-69
2022/08/02 05:22:44;;;;;;;45.27;43.10;;;21.20;81.40;;;;;;4974850;28;20465;-69
2022/08/02 05:25:11;;;;;;;30.10;28.80;;;21.20;81.40;;;;;;4981261;28;20460;-70
2022/08/02 05:27:38;;;;;;;36.40;34.80;;;21.30;81.30;;;;;;4977171;28;20492;-71
2022/08/02 05:30:06;;;;;;;29.05;27.75;;;21.50;80.80;;;;;;4970342;28;20598;-71
2022/08/02 05:32:33;;;;;;;40.20;38.17;;;21.80;80.00;;;;;;4976365;28;20233;-67
2022/08/02 05:35:01;;;;;;;32.77;31.17;;;21.70;79.80;;;;;;4966953;28;20471;-68
2022/08/02 05:37:30;;;;;;;37.00;35.30;;;21.80;79.60;;;;;;4965486;28;20572;-66
2022/08/02 05:39:57;;;;;;;32.27;30.97;;;21.80;79.60;;;;;;4969251;28;20566;-66
2022/08/02 05:42:24;;;;;;;36.23;34.70;;;21.70;80.00;;;;;;4968772;28;20481;-67
2022/08/02 05:44:51;;;;;;;41.93;40.03;;;21.70;80.00;;;;;;4970983;28;20471;-67
2022/08/02 05:47:18;;;;;;;42.87;40.90;;;21.70;80.30;;;;;;4971365;28;20460;-67
2022/08/02 05:49:45;;;;;;;50.70;48.33;;;21.80;79.60;;;;;;4968457;28;20574;-66
2022/08/02 05:52:16;;;;;;;31.87;30.27;;;21.90;79.60;;;;;;4972607;28;20542;-66
2022/08/02 05:54:49;;;;;;;41.17;39.27;;;22.00;79.00;;;;;;4969424;28;20469;-67
2022/08/02 05:57:26;;;;;;;40.23;38.33;;;22.10;78.50;;;;;;4965436;28;20844;-67
2022/08/02 06:00:04;;;;;;;55.47;53.07;;;22.10;78.20;;;;;;4968972;28;20533;-67
2022/08/02 06:02:43;;;;;;;47.30;45.20;;;22.10;78.20;;;;;;4972392;28;20487;-67
2022/08/02 06:05:12;;;;;;;38.23;36.43;;;22.10;78.50;;;;;;4965538;28;20594;-67
2022/08/02 06:07:42;;;;;;;42.90;41.07;;;22.20;77.80;;;;;;4963611;28;20553;-67
2022/08/02 06:10:13;;;;;;;53.70;51.10;;;22.30;77.00;;;;;;4970017;28;20947;-66
2022/08/02 06:12:46;;;;;;;31.57;30.17;;;22.30;77.00;;;;;;4967551;28;20486;-67
2022/08/02 06:15:15;;;;;;;55.90;53.43;;;22.30;77.00;;;;;;4969422;28;20498;-67
2022/08/02 06:17:42;;;;;;;37.23;35.60;;;22.40;76.50;;;;;;4976795;28;20469;-67
2022/08/02 06:20:12;;;;;;;32.70;31.30;;;22.40;76.50;;;;;;4966982;28;20538;-66
2022/08/02 06:22:42;;;;;;;49.87;47.63;;;22.60;76.00;;;;;;4971404;28;20493;-67
2022/08/02 06:25:11;;;;;;;35.73;34.23;;;22.80;75.00;;;;;;4971878;28;20473;-67
2022/08/02 06:27:39;;;;;;;36.40;34.80;;;22.80;74.90;;;;;;4971797;28;20463;-67
2022/08/02 06:30:09;;;;;;;35.37;33.80;;;22.90;74.30;;;;;;4971890;28;20873;-67
2022/08/02 06:32:36;;;;;;;45.60;43.60;;;23.00;74.70;;;;;;4970958;28;20458;-67
2022/08/02 06:35:05;;;;;;;38.37;36.47;;;23.00;74.00;;;;;;4970391;28;20518;-67
2022/08/02 06:37:38;;;;;;;40.83;38.77;;;23.10;73.40;;;;;;4970706;28;20490;-67
2022/08/02 06:40:14;;;;;;;36.60;34.90;;;23.10;73.10;;;;;;4971081;28;20482;-67
2022/08/02 06:42:49;;;;;;;40.97;39.17;;;23.10;73.60;;;;;;4971252;28;20489;-67
2022/08/02 06:45:16;;;;;;;34.27;32.73;;;23.10;72.80;;;;;;4970156;28;20462;-67
2022/08/02 06:47:43;;;;;;;36.20;34.60;;;23.10;72.90;;;;;;4972030;28;20542;-67
2022/08/02 06:50:11;;;;;;;38.90;37.20;;;23.30;71.80;;;;;;4968991;28;20593;-67
2022/08/02 06:52:38;;;;;;;49.60;47.30;;;23.30;70.90;;;;;;4972224;28;20550;-67
2022/08/02 06:55:06;;;;;;;32.80;31.30;;;23.30;70.60;;;;;;4963666;28;20499;-66
2022/08/02 06:57:36;;;;;;;34.10;32.30;;;23.20;70.90;;;;;;4968369;28;20545;-68
2022/08/02 07:00:07;;;;;;;47.70;45.23;;;23.20;70.80;;;;;;4971348;28;20533;-68
2022/08/02 07:02:35;;;;;;;33.70;32.00;;;23.30;70.70;;;;;;4969449;28;20483;-67
2022/08/02 07:05:02;;;;;;;36.27;34.57;;;23.30;70.50;;;;;;4970402;28;20471;-67
2022/08/02 07:07:32;;;;;;;32.50;30.80;;;23.20;70.90;;;;;;4970468;28;20506;-67
2022/08/02 07:10:00;;;;;;;43.77;41.43;;;23.30;70.60;;;;;;4971807;28;20601;-67
2022/08/02 07:12:28;;;;;;;34.47;32.87;;;23.30;70.40;;;;;;4971340;28;20459;-67
2022/08/02 07:14:57;;;;;;;34.20;32.60;;;23.20;70.70;;;;;;4970247;28;20467;-67
2022/08/02 07:17:24;;;;;;;42.50;40.33;;;23.20;70.90;;;;;;4970884;28;20558;-66
2022/08/02 07:19:51;;;;;;;37.30;35.30;;;23.40;70.50;;;;;;4969659;28;20909;-66
2022/08/02 07:22:21;;;;;;;32.77;31.27;;;23.60;70.10;;;;;;4970634;28;21019;-67
2022/08/02 07:24:49;;;;;;;38.10;36.30;;;23.80;69.30;;;;;;4971158;28;20522;-68
2022/08/02 07:27:16;;;;;;;44.00;41.77;;;23.80;69.00;;;;;;4969352;28;20968;-67
2022/08/02 07:29:43;;;;;;;34.37;32.67;;;23.80;69.20;;;;;;4971313;28;20491;-67
2022/08/02 07:32:12;;;;;;;44.43;42.33;;;24.00;69.10;;;;;;4970087;28;20569;-67
2022/08/02 07:34:39;;;;;;;34.77;32.87;;;24.20;68.10;;;;;;4964109;28;20459;-67
2022/08/02 07:37:06;;;;;;;37.87;35.93;;;24.30;67.80;;;;;;4971288;28;20546;-67
2022/08/02 07:39:33;;;;;;;66.40;63.40;;;24.40;67.50;;;;;;4968428;28;20570;-67
2022/08/02 07:42:00;;;;;;;39.47;37.57;;;24.70;67.00;;;;;;4970333;28;20930;-69
2022/08/02 07:44:30;;;;;;;44.17;41.97;;;24.80;66.40;;;;;;4970282;28;20578;-69
2022/08/02 07:46:57;;;;;;;44.83;42.83;;;24.80;66.30;;;;;;4971571;28;20740;-69
2022/08/02 07:49:25;;;;;;;51.77;49.07;;;25.00;65.70;;;;;;4967604;28;21272;-69
2022/08/02 07:51:52;;;;;;;39.63;37.47;;;24.80;66.00;;;;;;4969522;28;20496;-70
2022/08/02 07:54:19;;;;;;;36.17;34.17;;;24.80;66.20;;;;;;4969591;28;20526;-69
2022/08/02 07:56:46;;;;;;;36.40;34.50;;;24.90;66.90;;;;;;4970784;28;20476;-69
2022/08/02 07:59:13;;;;;;;44.83;42.70;;;25.10;66.30;;;;;;4967712;28;20492;-69
2022/08/02 08:01:41;;;;;;;47.63;45.13;;;25.10;65.60;;;;;;4970561;28;20488;-69
2022/08/02 08:04:14;;;;;;;35.43;33.73;;;24.90;66.20;;;;;;4969395;28;20464;-70
2022/08/02 08:06:42;;;;;;;37.20;35.40;;;25.00;66.10;;;;;;4970906;28;20569;-68
2022/08/02 08:09:09;;;;;;;43.27;41.07;;;25.10;65.80;;;;;;4968338;28;20492;-69
2022/08/02 08:11:36;;;;;;;43.20;41.20;;;25.20;65.60;;;;;;4969295;28;20462;-70
2022/08/02 08:14:05;;;;;;;43.47;41.30;;;25.30;65.40;;;;;;4970192;28;20872;-70
2022/08/02 08:16:32;;;;;;;39.57;37.47;;;25.40;65.40;;;;;;4967970;28;20465;-69
2022/08/02 08:18:59;;;;;;;43.17;40.80;;;25.60;65.30;;;;;;4966945;28;20544;-69
2022/08/02 08:21:26;;;;;;;37.60;35.80;;;25.70;64.90;;;;;;4968082;28;21000;-67
2022/08/02 08:23:54;;;;;;;40.33;38.33;;;25.80;64.50;;;;;;4968265;28;20817;-66
2022/08/02 08:26:21;;;;;;;37.80;35.87;;;25.90;64.50;;;;;;4969002;28;20877;-70
2022/08/02 08:28:48;;;;;;;35.00;33.30;;;26.00;63.90;;;;;;4969318;28;20455;-70
2022/08/02 08:31:15;;;;;;;38.90;36.90;;;26.10;63.40;;;;;;4967840;28;20462;-66
2022/08/02 08:33:42;;;;;;;55.73;52.90;;;25.90;63.70;;;;;;4971821;28;20455;-67
2022/08/02 08:36:09;;;;;;;52.23;49.77;;;25.90;64.10;;;;;;4967749;28;20568;-67
2022/08/02 08:38:36;;;;;;;39.27;37.27;;;26.00;63.10;;;;;;4969977;28;20561;-67
2022/08/02 08:41:04;;;;;;;52.07;49.23;;;25.60;64.00;;;;;;4968507;28;20599;-70
2022/08/02 08:43:31;;;;;;;53.20;50.27;;;25.50;64.40;;;;;;4974113;28;20569;-68
2022/08/02 08:45:58;;;;;;;41.40;39.27;;;25.60;64.40;;;;;;4974136;28;20570;-69
2022/08/02 08:48:26;;;;;;;43.70;41.43;;;25.60;64.00;;;;;;4977142;28;20478;-69
2022/08/02 08:50:56;;;;;;;34.80;33.00;;;25.80;63.40;;;;;;4972230;28;20493;-70
2022/08/02 08:53:25;;;;;;;36.03;34.03;;;26.00;63.30;;;;;;4976665;28;20469;-69
2022/08/02 08:55:55;;;;;;;39.33;37.43;;;26.10;63.00;;;;;;4975751;28;20964;-69
2022/08/02 08:58:23;;;;;;;38.80;36.77;;;26.10;62.90;;;;;;4976811;28;20467;-71
2022/08/02 09:00:50;;;;;;;41.20;39.30;;;26.20;62.40;;;;;;4974572;28;20542;-67
2022/08/02 09:03:17;;;;;;;55.20;52.60;;;26.40;60.90;;;;;;4975406;28;20565;-69
2022/08/02 09:05:46;;;;;;;38.80;36.90;;;26.40;60.60;;;;;;4973829;28;20557;-70
2022/08/02 09:08:14;;;;;;;48.77;46.50;;;26.20;60.60;;;;;;4977158;28;20477;-69
2022/08/02 09:10:42;;;;;;;46.87;44.43;;;26.10;61.00;;;;;;4974114;28;20491;-67
2022/08/02 09:13:15;;;;;;;49.60;47.10;;;26.10;61.10;;;;;;4976395;28;20458;-69
2022/08/02 09:15:52;;;;;;;48.40;46.17;;;26.10;61.10;;;;;;4972937;28;20462;-70
2022/08/02 09:18:19;;;;;;;47.67;45.40;;;26.30;60.80;;;;;;4974141;28;20581;-69
2022/08/02 09:20:56;;;;;;;37.00;35.07;;;26.60;60.50;;;;;;4975063;28;20561;-71
2022/08/02 09:23:24;;;;;;;51.17;48.57;;;26.80;59.20;;;;;;4963559;28;20553;-71
2022/08/02 09:26:01;;;;;;;48.13;45.97;;;26.60;59.30;;;;;;4989043;28;20507;-74
2022/08/02 09:28:29;;;;;;;51.13;48.63;;;26.60;59.60;;;;;;4975199;28;20972;-72
2022/08/02 09:31:03;;;;;;;40.50;38.50;;;26.60;60.10;;;;;;4988523;28;21044;-69
2022/08/02 09:33:31;;;;;;;58.53;55.93;;;26.70;59.90;;;;;;4969335;28;20557;-72
2022/08/02 09:36:02;;;;;;;47.57;45.07;;;26.70;59.70;;;;;;4973653;28;20548;-78
2022/08/02 09:38:30;;;;;;;40.20;38.20;;;27.00;58.20;;;;;;4970654;28;20461;-71
2022/08/02 09:40:57;;;;;;;40.77;38.70;;;27.10;57.80;;;;;;4974082;28;20479;-71
2022/08/02 09:43:39;;;;;;;45.77;43.70;;;27.10;57.90;;;;;;4975024;28;20582;-71
2022/08/02 09:46:19;;;;;;;52.30;49.70;;;27.30;57.70;;;;;;4986814;28;20836;-71
2022/08/02 09:48:50;;;;;;;44.93;42.60;;;27.20;57.60;;;;;;4969459;28;20477;-70
2022/08/02 09:51:19;;;;;;;54.33;51.63;;;27.20;57.50;;;;;;4964007;28;21100;-70
2022/08/02 09:53:48;;;;;;;40.60;38.40;;;27.50;57.50;;;;;;4974262;28;20569;-69
2022/08/02 09:56:16;;;;;;;36.00;34.30;;;27.70;57.00;;;;;;4956805;28;20952;-70
2022/08/02 09:58:44;;;;;;;37.07;35.17;;;28.00;56.50;;;;;;4971772;28;20469;-70
2022/08/02 10:01:11;;;;;;;39.53;37.57;;;28.10;56.00;;;;;;4970291;28;20561;-70
2022/08/02 10:03:54;;;;;;;56.87;54.00;;;28.30;55.80;;;;;;4970668;28;20475;-70
2022/08/02 10:06:21;;;;;;;39.17;37.37;;;28.60;55.30;;;;;;4970474;28;20463;-70
2022/08/02 10:08:49;;;;;;;40.40;38.30;;;28.50;55.00;;;;;;4972422;28;20547;-71
2022/08/02 10:11:16;;;;;;;47.80;45.40;;;28.40;55.30;;;;;;4972214;28;20459;-70
2022/08/02 10:13:44;;;;;;;41.20;39.20;;;28.50;54.60;;;;;;4970320;28;20595;-70
2022/08/02 10:16:12;;;;;;;45.53;43.23;;;28.40;54.80;;;;;;4968237;28;20463;-69
2022/08/02 10:18:40;;;;;;;52.97;50.37;;;28.30;55.10;;;;;;4967791;28;20841;-69
2022/08/02 10:21:12;;;;;;;37.93;35.73;;;28.00;55.30;;;;;;4970494;28;20483;-69
2022/08/02 10:23:42;;;;;;;37.60;35.77;;;28.00;55.70;;;;;;4963058;28;20914;-70
2022/08/02 10:26:12;;;;;;;55.27;52.67;;;28.10;56.00;;;;;;4969863;28;20550;-70
2022/08/02 10:28:39;;;;;;;38.27;36.27;;;28.40;55.50;;;;;;4964453;28;20487;-70
2022/08/02 10:31:07;;;;;;;44.07;41.83;;;28.50;55.00;;;;;;4967605;28;20566;-70
2022/08/02 10:33:37;;;;;;;51.90;49.30;;;28.50;54.30;;;;;;4966698;28;21120;-70
2022/08/02 10:36:08;;;;;;;42.03;39.67;;;28.50;54.30;;;;;;4968614;28;20921;-70
2022/08/02 10:38:35;;;;;;;38.40;36.50;;;28.50;54.10;;;;;;4972061;28;20487;-70
2022/08/02 10:41:03;;;;;;;49.93;47.50;;;28.50;54.40;;;;;;4967809;28;20538;-69
2022/08/02 10:43:48;;;;;;;39.20;37.33;;;28.70;54.20;;;;;;4969649;28;20562;-70
2022/08/02 10:46:31;;;;;;;45.43;43.23;;;29.00;53.80;;;;;;4965588;28;20485;-70
2022/08/02 10:49:03;;;;;;;54.43;51.67;;;29.30;52.80;;;;;;4970551;28;20497;-67
2022/08/02 10:52:15;;;;;;;52.73;50.23;;;29.60;52.80;;;;;;4969834;28;20551;-68
2022/08/02 10:54:48;;;;;;;42.97;40.60;;;29.80;52.10;;;;;;4960346;28;20550;-70
2022/08/02 10:57:18;;;;;;;47.43;45.20;;;29.90;52.00;;;;;;4969387;28;20463;-70
2022/08/02 10:59:45;;;;;;;37.87;36.07;;;30.00;51.40;;;;;;4968234;28;21059;-71
2022/08/02 11:02:13;;;;;;;37.20;35.47;;;30.10;51.60;;;;;;4968807;28;20470;-70
2022/08/02 11:05:03;;;;;;;40.60;38.60;;;30.30;52.20;;;;;;4960866;28;20897;-72
2022/08/02 11:07:37;;;;;;;41.10;39.20;;;30.50;52.20;;;;;;4966089;28;20557;-72
2022/08/02 11:10:31;;;;;;;60.93;58.20;;;30.50;52.70;;;;;;4966921;28;20565;-72
2022/08/02 11:13:01;;;;;;;48.87;46.23;;;30.70;51.30;;;;;;4964884;28;20490;-75
2022/08/02 11:15:28;;;;;;;42.27;40.20;;;30.70;49.70;;;;;;4962804;28;20475;-72
2022/08/02 11:17:57;;;;;;;38.57;36.80;;;30.60;50.20;;;;;;4963272;28;20546;-72
2022/08/02 11:20:25;;;;;;;51.70;49.10;;;30.60;51.20;;;;;;4966900;28;22522;-73
2022/08/02 11:22:53;;;;;;;54.50;51.90;;;30.60;50.80;;;;;;4968206;28;20569;-72
2022/08/02 11:25:37;;;;;;;37.20;35.40;;;30.70;50.60;;;;;;4969378;28;20458;-72
2022/08/02 11:28:10;;;;;;;39.27;37.10;;;30.90;51.30;;;;;;4961718;28;20999;-73
2022/08/02 11:30:38;;;;;;;36.40;34.57;;;31.00;49.70;;;;;;4961255;28;20601;-70
2022/08/02 11:33:06;;;;;;;49.63;47.30;;;31.00;49.90;;;;;;4965084;28;20466;-71
2022/08/02 11:35:35;;;;;;;38.17;36.30;;;31.00;49.40;;;;;;4966095;28;20970;-72
2022/08/02 11:38:18;;;;;;;51.40;48.57;;;30.80;48.70;;;;;;4966072;28;20481;-71
2022/08/02 11:40:48;;;;;;;42.37;40.10;;;30.60;49.80;;;;;;4961921;28;20510;-70
2022/08/02 11:43:19;;;;;;;50.17;47.43;;;30.70;50.30;;;;;;4969815;28;20562;-70
2022/08/02 11:45:47;;;;;;;55.90;53.00;;;31.00;50.00;;;;;;4966271;28;20546;-70
2022/08/02 11:48:14;;;;;;;39.50;37.60;;;31.20;49.30;;;;;;4971400;28;20471;-71
2022/08/02 11:50:41;;;;;;;38.37;36.20;;;31.20;49.30;;;;;;4972625;28;20494;-72
2022/08/02 11:53:15;;;;;;;43.10;41.10;;;31.40;48.70;;;;;;4967388;28;20501;-69
2022/08/02 11:55:42;;;;;;;60.00;57.20;;;31.50;48.40;;;;;;4982136;23;20568;-68
2022/08/02 11:58:11;;;;;;;44.23;42.23;;;31.60;47.50;;;;;;4987904;28;20462;-67
2022/08/02 12:00:39;;;;;;;43.60;41.47;;;31.40;47.80;;;;;;4979694;28;21046;-70
2022/08/02 12:03:07;;;;;;;50.63;48.20;;;31.20;46.60;;;;;;4982788;28;20482;-69
2022/08/02 12:05:35;;;;;;;57.90;55.00;;;31.00;47.20;;;;;;4975026;28;20471;-70
2022/08/02 12:08:07;;;;;;;55.57;52.97;;;30.90;47.40;;;;;;4987360;28;20813;-71
2022/08/02 12:10:34;;;;;;;57.17;54.33;;;30.60;48.40;;;;;;4986027;28;20477;-71
2022/08/02 12:13:02;;;;;;;52.43;49.83;;;30.60;48.70;;;;;;4984453;28;20484;-71
2022/08/02 12:15:33;;;;;;;54.67;51.97;;;30.90;48.50;;;;;;4977470;28;20502;-70
2022/08/02 12:20:46;;;;;;;41.23;39.30;;;31.10;47.80;;;;;;4979537;28;20580;-70
2022/08/02 12:23:13;;;;;;;59.83;56.83;;;30.60;47.80;;;;;;4987905;28;20490;-70
2022/08/02 12:25:40;;;;;;;42.43;40.37;;;30.60;49.00;;;;;;4981218;28;20461;-70
2022/08/02 12:28:16;;;;;;;40.10;38.10;;;30.80;48.90;;;;;;4978022;28;20462;-70
2022/08/02 12:30:52;;;;;;;47.90;45.60;;;30.90;48.80;;;;;;4982985;28;20572;-70
2022/08/02 12:33:19;;;;;;;50.33;47.70;;;31.00;48.50;;;;;;4984280;28;20540;-70
2022/08/02 12:35:46;;;;;;;57.07;54.17;;;31.00;49.10;;;;;;4985699;28;20796;-70
2022/08/02 12:38:14;;;;;;;42.13;40.03;;;31.10;49.00;;;;;;4989261;28;20463;-70
2022/08/02 12:40:41;;;;;;;58.20;55.03;;;31.00;49.50;;;;;;4983563;28;20574;-70
2022/08/02 12:43:16;;;;;;;59.50;56.40;;;31.10;49.30;;;;;;4977343;28;20571;-70
2022/08/02 12:45:49;;;;;;;42.37;40.23;;;31.20;49.30;;;;;;4984409;28;20546;-70
2022/08/02 12:48:29;;;;;;;42.87;40.77;;;31.30;49.10;;;;;;4985161;28;20462;-70